Aérodrome :
LOGIN :

S'inscrire | Disclaimer

   EN    FR    IT 

 










Légende :    VFR   VFR Marginal   IFR   IFR Intensif   IFR Très Intensif
Visi : 
Plafond : 
>= 8 km
>= 3000ft
5 à 8 km
1000 à 3000 ft
1500m à 5 km
500 à 1000 ft
800 à 1500m
200 à 500 ft
< 800m
< 200 ft
Symboles :   Orages  Brouillard  Fortes neiges  Fortes précipitations  Vent > 20 kt
SIGMETs :   Divers  Orages  Givrage  Turbulence  Onde Orograph.  Cendres Volcan.






- Altitude de l'aérodrome : 640 ft
- Code IATA : AOC


EDAC - Altenburg-Nobitz

DERNIER METAR :
  • 022050Z AUTO 18003KT 130V220 9999 R04///// // NCD 15/09 Q1012

METARs EXPIRÉS :
  • 022020Z AUTO VRB02KT 9999 // FEW077/// 16/10 Q1012
  • 021950Z AUTO VRB02KT 9999 // SCT084/// BKN096/// 17/10 Q1012
  • 021920Z AUTO 15003KT 9999 R04///// // SCT080/// 18/10 Q1012
  • 021850Z AUTO 28004KT 9999 // NCD 21/08 Q1012
  • 021820Z AUTO 30006KT 9999 // NCD 22/08 Q1012

TAF TAF EDAC
Valide du 02 à 18h jusqu'au 03 à 03h UTC


021700Z 0218/0303 30004KT CAVOK



MET'MAP, la Météo Aéronautique d'un coup d'oeil ! - Copyright ORBIFLY Décembre 2007 - Disclaimer

ORBIFLY MET'MAP TEAM :

Programmation & Développement : Alexandra Zaïnal
Sur une idée originale de : Baudouin d'Aumeries
Assistance à la programmation : Marc-Olivier Méhu
Soutien technique & logistique : Manuel Goepfert

Contact : metmap@orbifly.com




SOURCES & CREDITS :

   NOAA